Map

Track Data

SID SEASON NUMBER BASIN SUBBASIN NAME ISO_TIME NATURE LAT LON WMO_WIND WMO_PRES WMO_AGENCY TRACK_TYPE DIST2LAND LANDFALL IFLAG USA_AGENCY USA_ATCF_ID USA_LAT USA_LON USA_RECORD USA_STATUS USA_WIND USA_PRES USA_SSHS USA_R34_NE USA_R34_SE USA_R34_SW USA_R34_NW USA_R50_NE USA_R50_SE USA_R50_SW USA_R50_NW USA_R64_NE USA_R64_SE USA_R64_SW USA_R64_NW USA_POCI USA_ROCI USA_RMW USA_EYE TOKYO_LAT TOKYO_LON TOKYO_GRADE TOKYO_WIND TOKYO_PRES TOKYO_R50_DIR TOKYO_R50_LONG TOKYO_R50_SHORT TOKYO_R30_DIR TOKYO_R30_LONG TOKYO_R30_SHORT TOKYO_LAND CMA_LAT CMA_LON CMA_CAT CMA_WIND CMA_PRES HKO_LAT HKO_LON HKO_CAT HKO_WIND HKO_PRES NEWDELHI_LAT NEWDELHI_LON NEWDELHI_GRADE NEWDELHI_WIND NEWDELHI_PRES NEWDELHI_CI NEWDELHI_DP NEWDELHI_POCI REUNION_LAT REUNION_LON REUNION_TYPE REUNION_WIND REUNION_PRES REUNION_TNUM REUNION_CI REUNION_RMW REUNION_R34_NE REUNION_R34_SE REUNION_R34_SW REUNION_R34_NW REUNION_R50_NE REUNION_R50_SE REUNION_R50_SW REUNION_R50_NW REUNION_R64_NE REUNION_R64_SE REUNION_R64_SW REUNION_R64_NW BOM_LAT BOM_LON BOM_TYPE BOM_WIND BOM_PRES BOM_TNUM BOM_CI BOM_RMW BOM_R34_NE BOM_R34_SE BOM_R34_SW BOM_R34_NW BOM_R50_NE BOM_R50_SE BOM_R50_SW BOM_R50_NW BOM_R64_NE BOM_R64_SE BOM_R64_SW BOM_R64_NW BOM_ROCI BOM_POCI BOM_EYE BOM_POS_METHOD BOM_PRES_METHOD NADI_LAT NADI_LON NADI_CAT NADI_WIND NADI_PRES WELLINGTON_LAT WELLINGTON_LON WELLINGTON_WIND WELLINGTON_PRES DS824_LAT DS824_LON DS824_STAGE DS824_WIND DS824_PRES TD9636_LAT TD9636_LON TD9636_STAGE TD9636_WIND TD9636_PRES TD9635_LAT TD9635_LON TD9635_WIND TD9635_PRES TD9635_ROCI NEUMANN_LAT NEUMANN_LON NEUMANN_CLASS NEUMANN_WIND NEUMANN_PRES MLC_LAT MLC_LON MLC_CLASS MLC_WIND MLC_PRES USA_GUST BOM_GUST BOM_GUST_PER REUNION_GUST REUNION_GUST_PER USA_SEAHGT USA_SEARAD_NE USA_SEARAD_SE USA_SEARAD_SW USA_SEARAD_NW STORM_SPEED STORM_DIR
1922085N15112 1922 22 WP MM NOT_NAMED 1922-03-25 22:00:00 NR 14.9000 112.200 main 331 331 __________O___ -1 14.9000 112.200 2 4 25
1922085N15112 1922 22 WP MM NOT_NAMED 1922-03-26 00:00:00 NR 15.0076 112.264 main 345 345 __________P___ -1 15.0076 112.264 2 4 31
1922085N15112 1922 22 WP MM NOT_NAMED 1922-03-26 03:00:00 NR 15.1661 112.362 main 359 359 __________P___ -1 15.1661 112.362 2 4 31
1922085N15112 1922 22 WP MM NOT_NAMED 1922-03-26 06:00:00 NR 15.3173 112.462 main 371 371 __________P___ -1 15.3173 112.462 2 4 34
1922085N15112 1922 22 WP MM NOT_NAMED 1922-03-26 09:00:00 NR 15.4568 112.565 main 386 386 __________P___ -1 15.4568 112.565 2 3 35
1922085N15112 1922 22 WP MM NOT_NAMED 1922-03-26 10:00:00 NR 15.5000 112.600 main 386 386 __________O___ -1 15.5000 112.600 2 3 40
1922085N15112 1922 22 WP MM NOT_NAMED 1922-03-26 12:00:00 NR 15.5816 112.673 main 399 399 __________P___ -1 15.5816 112.673 2 3 41
1922085N15112 1922 22 WP MM NOT_NAMED 1922-03-26 15:00:00 NR 15.7036 112.787 main 412 412 __________P___ -1 15.7036 112.787 2 4 41
1922085N15112 1922 22 WP MM NOT_NAMED 1922-03-26 18:00:00 NR 15.8446 112.912 main 419 409 __________P___ -1 15.8446 112.912 2 4 38
1922085N15112 1922 22 WP MM NOT_NAMED 1922-03-26 21:00:00 NR 16.0265 113.051 main 416 408 __________P___ -1 16.0265 113.051 2 5 36
1922085N15112 1922 22 WP MM NOT_NAMED 1922-03-26 22:00:00 NR 16.1000 113.100 main 408 400 __________O___ -1 16.1000 113.100 2 6 31
1922085N15112 1922 22 WP MM NOT_NAMED 1922-03-27 00:00:00 NR 16.2793 113.203 main 400 385 __________P___ -1 16.2793 113.203 2 7 28
1922085N15112 1922 22 WP MM NOT_NAMED 1922-03-27 03:00:00 NR 16.5925 113.369 main 393 382 __________P___ -1 16.5925 113.369 2 7 27
1922085N15112 1922 22 WP MM NOT_NAMED 1922-03-27 06:00:00 NR 16.9365 113.548 main 382 377 __________P___ -1 16.9365 113.548 2 8 27
1922085N15112 1922 22 WP MM NOT_NAMED 1922-03-27 09:00:00 NR 17.2864 113.736 main 377 377 __________P___ -1 17.2864 113.736 2 8 27
1922085N15112 1922 22 WP MM NOT_NAMED 1922-03-27 10:00:00 NR 17.4000 113.800 main 382 377 __________O___ -1 17.4000 113.800 2 7 28
1922085N15112 1922 22 WP MM NOT_NAMED 1922-03-27 12:00:00 NR 17.5976 113.907 main 378 372 __________P___ -1 17.5976 113.907 2 7 28
1922085N15112 1922 22 WP MM NOT_NAMED 1922-03-27 15:00:00 NR 17.8876 114.074 main 377 372 __________P___ -1 17.8876 114.074 2 7 30
1922085N15112 1922 22 WP MM NOT_NAMED 1922-03-27 18:00:00 NR 18.1812 114.266 main 380 376 __________P___ -1 18.1812 114.266 2 7 34
1922085N15112 1922 22 WP MM NOT_NAMED 1922-03-27 21:00:00 NR 18.4910 114.506 main 387 387 __________P___ -1 18.4910 114.506 2 8 37
1922085N15112 1922 22 WP MM NOT_NAMED 1922-03-27 22:00:00 NR 18.6000 114.600 main 394 383 __________O___ -1 18.6000 114.600 2 9 38
1922085N15112 1922 22 WP MM NOT_NAMED 1922-03-28 00:00:00 NR 18.8590 114.807 main 383 348 __________P___ -1 18.8590 114.807 2 10 39
1922085N15112 1922 22 WP MM NOT_NAMED 1922-03-28 03:00:00 NR 19.2670 115.169 main 348 320 __________P___ -1 19.2670 115.169 2 11 42
1922085N15112 1922 22 WP MM NOT_NAMED 1922-03-28 06:00:00 NR 19.6624 115.583 main 320 301 __________P___ -1 19.6624 115.583 2 11 48
1922085N15112 1922 22 WP MM NOT_NAMED 1922-03-28 09:00:00 NR 20.0047 116.040 main 301 292 __________P___ -1 20.0047 116.040 2 11 53
1922085N15112 1922 22 WP MM NOT_NAMED 1922-03-28 10:00:00 NR 20.1000 116.200 main 293 277 __________O___ -1 20.1000 116.200 2 10 59
1922085N15112 1922 22 WP MM NOT_NAMED 1922-03-28 12:00:00 NR 20.2580 116.490 main 277 273 __________P___ -1 20.2580 116.490 2 9 65
1922085N15112 1922 22 WP MM NOT_NAMED 1922-03-28 15:00:00 NR 20.4325 116.956 main 284 273 __________P___ -1 20.4325 116.956 2 10 73
1922085N15112 1922 22 WP MM NOT_NAMED 1922-03-28 18:00:00 NR 20.5410 117.478 main 287 281 __________P___ -1 20.5410 117.478 2 11 81
1922085N15112 1922 22 WP MM NOT_NAMED 1922-03-28 21:00:00 NR 20.5934 118.079 main 305 288 __________P___ -1 20.5934 118.079 2 12 86
1922085N15112 1922 22 WP MM NOT_NAMED 1922-03-28 22:00:00 NR 20.6000 118.300 main 288 244 __________O___ -1 20.6000 118.300 2 13 91
1922085N15112 1922 22 WP MM NOT_NAMED 1922-03-29 00:00:00 NR 20.5838 118.794 main 244 193 __________P___ -1 20.5838 118.794 2 15 94
1922085N15112 1922 22 WP MM NOT_NAMED 1922-03-29 03:00:00 NR 20.5144 119.609 main 193 161 __________P___ -1 20.5144 119.609 2 16 95
1922085N15112 1922 22 WP MM NOT_NAMED 1922-03-29 06:00:00 NR 20.4348 120.470 main 169 167 __________P___ -1 20.4348 120.470 2 16 94
1922085N15112 1922 22 WP MM NOT_NAMED 1922-03-29 09:00:00 NR 20.3954 121.325 main 172 175 __________P___ -1 20.3954 121.325 2 16 92
1922085N15112 1922 22 WP MM NOT_NAMED 1922-03-29 10:00:00 NR 20.4000 121.600 main 182 182 __________O___ -1 20.4000 121.600 2 15 86
1922085N15112 1922 22 WP MM NOT_NAMED 1922-03-29 12:00:00 NR 20.4441 122.140 main 208 206 __________P___ -1 20.4441 122.140 2 15 82
1922085N15112 1922 22 WP MM NOT_NAMED 1922-03-29 15:00:00 NR 20.5670 122.925 main 253 256 __________P___ -1 20.5670 122.925 2 15 78
1922085N15112 1922 22 WP MM NOT_NAMED 1922-03-29 18:00:00 NR 20.7548 123.657 main 305 305 __________P___ -1 20.7548 123.657 2 14 71
1922085N15112 1922 22 WP MM NOT_NAMED 1922-03-29 21:00:00 NR 21.0039 124.307 main 358 358 __________P___ -1 21.0039 124.307 2 13 66
1922085N15112 1922 22 WP MM NOT_NAMED 1922-03-29 22:00:00 NR 21.1000 124.500 main 379 379 __________O___ -1 21.1000 124.500 2 12 61
1922085N15112 1922 22 WP MM NOT_NAMED 1922-03-30 00:00:00 NR 21.2874 124.852 main 412 412 __________P___ -1 21.2874 124.852 2 11 55
1922085N15112 1922 22 WP MM NOT_NAMED 1922-03-30 03:00:00 NR 21.6198 125.297 main 434 430 __________P___ -1 21.6198 125.297 2 11 47
1922085N15112 1922 22 WP MM NOT_NAMED 1922-03-30 06:00:00 NR 22.0078 125.670 main 458 455 __________P___ -1 22.0078 125.670 2 11 38
1922085N15112 1922 22 WP MM NOT_NAMED 1922-03-30 09:00:00 NR 22.4447 125.996 main 477 473 __________P___ -1 22.4447 125.996 2 11 34
1922085N15112 1922 22 WP MM NOT_NAMED 1922-03-30 10:00:00 NR 22.6000 126.100 main 477 472 __________O___ -1 22.6000 126.100 2 11 31
1922085N15112 1922 22 WP MM NOT_NAMED 1922-03-30 12:00:00 NR 22.9234 126.304 main 482 477 __________P___ -1 22.9234 126.304 2 12 29
1922085N15112 1922 22 WP MM NOT_NAMED 1922-03-30 15:00:00 NR 23.4349 126.606 main 492 490 __________P___ -1 23.4349 126.606 2 12 28
1922085N15112 1922 22 WP MM NOT_NAMED 1922-03-30 18:00:00 NR 23.9693 126.904 main 507 507 __________P___ -1 23.9693 126.904 2 12 27
1922085N15112 1922 22 WP MM NOT_NAMED 1922-03-30 21:00:00 NR 24.5165 127.201 main 527 526 __________P___ -1 24.5165 127.201 2 12 26
1922085N15112 1922 22 WP MM NOT_NAMED 1922-03-30 22:00:00 NR 24.7000 127.300 main 535 __________O___ -1 24.7000 127.300 7 12 27

Digital Typhoon Data and Search

About IBTrACS Database

This database is a web-friendly format of International Best Track Archive for Climate Stewardship (IBTrACS), a global best track data archive curated by NOAA dating back to 1842.

Updated: 2021-12-03